Time;durP1;ratioP1;P1;durP2;ratioP2;P2;SDS_P1;SDS_P2;PMS_P1;PMS_P2;Temp;Humidity;BMP_temperature;BMP_pressure;BME280_temperature;BME280_humidity;BME280_pressure;Samples;Min_cycle;Max_cycle;Signal;HPM_P1;HPM_P2
2023/09/14 00:02:24;;;;;;;;;;;;;;;;;;6297661;22;19919;-87
2023/09/14 00:04:52;;;;;;;;;;;;;;;;;;6272195;22;19915;-88
2023/09/14 00:07:19;;;;;;;;;;;;;;;;;;6271868;22;20039;-87
2023/09/14 00:09:46;;;;;;;;;;;;;;;;;;6297828;22;19918;-88
2023/09/14 00:12:13;;;;;;;;;;;;;;;;;;6296991;22;19922;-87
2023/09/14 00:14:40;;;;;;;;;;;;;;;;;;6297535;22;19918;-87
2023/09/14 00:17:08;;;;;;;;;;;;;;;;;;6270211;22;20220;-87
2023/09/14 00:19:35;;;;;;;;;;;;;;;;;;6298767;22;19934;-87
2023/09/14 00:22:02;;;;;;;;;;;;;;;;;;6271513;22;19969;-87
2023/09/14 00:24:29;;;;;;;;;;;;;;;;;;6272490;22;19993;-87
2023/09/14 00:26:57;;;;;;;;;;;;;;;;;;6272486;22;20938;-87
2023/09/14 00:29:24;;;;;;;;;;;;;;;;;;6271541;22;19926;-87
2023/09/14 00:32:03;;;;;;;;;;;;;;;;;;6299435;22;20330;-87
2023/09/14 00:34:30;;;;;;;;;;;;;;;;;;6271410;22;20301;-87
2023/09/14 00:36:58;;;;;;;;;;;;;;;;;;6272427;22;19973;-87
2023/09/14 00:39:25;;;;;;;;;;;;;;;;;;6272024;22;19930;-87
2023/09/14 00:41:52;;;;;;;;;;;;;;;;;;6270538;22;19919;-87
2023/09/14 00:44:19;;;;;;;;;;;;;;;;;;6296572;22;19925;-87
2023/09/14 00:46:47;;;;;;;;;;;;;;;;;;6271420;22;19925;-86
2023/09/14 00:49:14;;;;;;;;;;;;;;;;;;6297008;22;19937;-87
2023/09/14 00:51:41;;;;;;;;;;;;;;;;;;6270864;22;19915;-87
2023/09/14 00:54:09;;;;;;;;;;;;;;;;;;6271635;22;20036;-87
2023/09/14 00:56:36;;;;;;;;;;;;;;;;;;6271746;22;19919;-88
2023/09/14 00:59:05;;;;;;;;;;;;;;;;;;6270285;22;20208;-88
2023/09/14 01:01:32;;;;;;;;;;;;;;;;;;6269518;22;20014;-87
2023/09/14 01:03:59;;;;;;;;;;;;;;;;;;6296808;22;20248;-87
2023/09/14 01:06:32;;;;;;;;;;;;;;;;;;6300068;22;19923;-88
2023/09/14 01:09:00;;;;;;;;;;;;;;;;;;6297615;22;19919;-88
2023/09/14 01:11:30;;;;;;;;;;;;;;;;;;6296971;22;19919;-87
2023/09/14 01:13:58;;;;;;;;;;;;;;;;;;6268585;22;19948;-87
2023/09/14 01:16:25;;;;;;;;;;;;;;;;;;6269833;22;20331;-86
2023/09/14 01:18:53;;;;;;;;;;;;;;;;;;6270555;22;19926;-87
2023/09/14 01:21:20;;;;;;;;;;;;;;;;;;6270631;22;20002;-86
2023/09/14 01:23:59;;;;;;;;;;;;;;;;;;6297456;22;20047;-86
2023/09/14 01:26:28;;;;;;;;;;;;;;;;;;6297022;22;19919;-87
2023/09/14 01:28:55;;;;;;;;;;;;;;;;;;6296753;22;19929;-87
2023/09/14 01:31:22;;;;;;;;;;;;;;;;;;6269304;22;19923;-87
2023/09/14 01:33:50;;;;;;;;;;;;;;;;;;6299464;22;19919;-87
2023/09/14 01:36:17;;;;;;;;;;;;;;;;;;6296116;22;19945;-86
2023/09/14 01:38:48;;;;;;;;;;;;;;;;;;6296363;22;20009;-87
2023/09/14 01:41:19;;;;;;;;;;;;;;;;;;6296567;22;19915;-87
2023/09/14 01:43:46;;;;;;;;;;;;;;;;;;6270665;22;19926;-87
2023/09/14 01:46:13;;;;;;;;;;;;;;;;;;6271523;22;19919;-87
2023/09/14 01:48:40;;;;;;;;;;;;;;;;;;6270951;22;19921;-87
2023/09/14 01:51:08;;;;;;;;;;;;;;;;;;6299348;22;19919;-88
2023/09/14 01:53:35;;;;;;;;;;;;;;;;;;6299377;22;19938;-88
2023/09/14 01:56:02;;;;;;;;;;;;;;;;;;6271107;22;19923;-87
2023/09/14 01:58:30;;;;;;;;;;;;;;;;;;6294228;22;19923;-87
2023/09/14 02:00:57;;;;;;;;;;;;;;;;;;6295852;22;19921;-87
2023/09/14 02:03:25;;;;;;;;;;;;;;;;;;6269414;22;19919;-87
2023/09/14 02:05:54;;;;;;;;;;;;;;;;;;6292232;22;19925;-86
2023/09/14 02:08:21;;;;;;;;;;;;;;;;;;6267726;22;20381;-87
2023/09/14 02:10:52;;;;;;;;;;;;;;;;;;6295302;22;20232;-87
2023/09/14 02:13:19;;;;;;;;;;;;;;;;;;6268671;22;19923;-87
2023/09/14 02:15:46;;;;;;;;;;;;;;;;;;6267320;22;19919;-87
2023/09/14 02:18:13;;;;;;;;;;;;;;;;;;6270487;22;20003;-87
2023/09/14 02:20:41;;;;;;;;;;;;;;;;;;6269018;22;19918;-87
2023/09/14 02:23:08;;;;;;;;;;;;;;;;;;6295594;22;20062;-87
2023/09/14 02:25:35;;;;;;;;;;;;;;;;;;6271090;22;19919;-86
2023/09/14 02:28:02;;;;;;;;;;;;;;;;;;6268780;22;20302;-87
2023/09/14 02:30:29;;;;;;;;;;;;;;;;;;6269632;22;19952;-86
2023/09/14 02:32:56;;;;;;;;;;;;;;;;;;6268727;22;20385;-87
2023/09/14 02:35:27;;;;;;;;;;;;;;;;;;6271093;22;19918;-87
2023/09/14 02:37:54;;;;;;;;;;;;;;;;;;6269125;22;19919;-87
2023/09/14 02:40:21;;;;;;;;;;;;;;;;;;6269017;22;19919;-87
2023/09/14 02:42:49;;;;;;;;;;;;;;;;;;6293731;22;20028;-87
2023/09/14 02:45:16;;;;;;;;;;;;;;;;;;6296877;22;19925;-87
2023/09/14 02:47:43;;;;;;;;;;;;;;;;;;6268903;22;19919;-88
2023/09/14 02:50:10;;;;;;;;;;;;;;;;;;6293928;22;19926;-87
2023/09/14 02:52:38;;;;;;;;;;;;;;;;;;6269914;22;19942;-86
2023/09/14 02:55:04;;;;;;;;;;;;;;;;;;6267783;22;19977;-87
2023/09/14 02:57:31;;;;;;;;;;;;;;;;;;6265063;22;19952;-87
2023/09/14 02:59:58;;;;;;;;;;;;;;;;;;6235270;22;19927;-87
2023/09/14 03:02:26;;;;;;;;;;;;;;;;;;6237877;22;19919;-88
2023/09/14 03:04:53;;;;;;;;;;;;;;;;;;6263426;22;19926;-87
2023/09/14 03:07:21;;;;;;;;;;;;;;;;;;6237281;22;20292;-87
2023/09/14 03:09:48;;;;;;;;;;;;;;;;;;6238786;22;19926;-87
2023/09/14 03:12:15;;;;;;;;;;;;;;;;;;6237140;22;19998;-87
2023/09/14 03:14:42;;;;;;;;;;;;;;;;;;6262816;22;20398;-87
2023/09/14 03:17:10;;;;;;;;;;;;;;;;;;6237826;22;19919;-87
2023/09/14 03:19:37;;;;;;;;;;;;;;;;;;6237338;22;20025;-87
2023/09/14 03:22:04;;;;;;;;;;;;;;;;;;6262993;22;19926;-87
2023/09/14 03:24:31;;;;;;;;;;;;;;;;;;6239127;22;20335;-87
2023/09/14 03:26:58;;;;;;;;;;;;;;;;;;6265890;22;20912;-87
2023/09/14 03:29:30;;;;;;;;;;;;;;;;;;6269274;22;20339;-87
2023/09/14 03:31:57;;;;;;;;;;;;;;;;;;6245020;22;20363;-87
2023/09/14 03:34:24;;;;;;;;;;;;;;;;;;6244505;22;19971;-88
2023/09/14 03:36:55;;;;;;;;;;;;;;;;;;6244359;22;19953;-88
2023/09/14 03:39:22;;;;;;;;;;;;;;;;;;6246225;22;20286;-87
2023/09/14 03:41:53;;;;;;;;;;;;;;;;;;6244107;22;20437;-88
2023/09/14 03:44:24;;;;;;;;;;;;;;;;;;6269929;22;19937;-88
2023/09/14 03:46:55;;;;;;;;;;;;;;;;;;6242646;22;19919;-88
2023/09/14 03:49:25;;;;;;;;;;;;;;;;;;6268920;22;19919;-87
2023/09/14 03:51:56;;;;;;;;;;;;;;;;;;6245075;22;20323;-87
2023/09/14 03:54:26;;;;;;;;;;;;;;;;;;6246432;22;19919;-87
2023/09/14 03:56:54;;;;;;;;;;;;;;;;;;6270075;22;19966;-88
2023/09/14 03:59:28;;;;;;;;;;;;;;;;;;6254564;22;19923;-87
2023/09/14 04:01:55;;;;;;;;;;;;;;;;;;6266529;22;20004;-88
2023/09/14 04:04:37;;;;;;;;;;;;;;;;;;6297298;22;19919;-88
2023/09/14 04:07:04;;;;;;;;;;;;;;;;;;6270540;22;19950;-88
2023/09/14 04:09:31;;;;;;;;;;;;;;;;;;6271644;22;19919;-88
2023/09/14 04:11:58;;;;;;;;;;;;;;;;;;6295317;22;20000;-87
2023/09/14 04:14:26;;;;;;;;;;;;;;;;;;6295998;22;20394;-88
2023/09/14 04:16:57;;;;;;;;;;;;;;;;;;6269275;22;19986;-87
2023/09/14 04:19:24;;;;;;;;;;;;;;;;;;6295661;22;19919;-87
2023/09/14 04:21:50;;;;;;;;;;;;;;;;;;6294906;22;19918;-88
2023/09/14 04:24:17;;;;;;;;;;;;;;;;;;6269416;22;19961;-87
2023/09/14 04:26:45;;;;;;;;;;;;;;;;;;6266675;22;19985;-87
2023/09/14 04:29:12;;;;;;;;;;;;;;;;;;6267503;22;19953;-87
2023/09/14 04:31:40;;;;;;;;;;;;;;;;;;6292647;22;19919;-88
2023/09/14 04:34:08;;;;;;;;;;;;;;;;;;6295012;22;19919;-87
2023/09/14 04:36:37;;;;;;;;;;;;;;;;;;6267078;22;19918;-87
2023/09/14 04:39:05;;;;;;;;;;;;;;;;;;6293244;22;19958;-87
2023/09/14 04:41:32;;;;;;;;;;;;;;;;;;6269842;22;19929;-87
2023/09/14 04:44:00;;;;;;;;;;;;;;;;;;6298277;22;19993;-87
2023/09/14 04:46:27;;;;;;;;;;;;;;;;;;6294285;22;19941;-87
2023/09/14 04:48:55;;;;;;;;;;;;;;;;;;6268221;22;19925;-87
2023/09/14 04:51:23;;;;;;;;;;;;;;;;;;6295563;22;19919;-87
2023/09/14 04:53:50;;;;;;;;;;;;;;;;;;6295827;22;19964;-87
2023/09/14 04:56:17;;;;;;;;;;;;;;;;;;6269117;22;19919;-87
2023/09/14 04:58:48;;;;;;;;;;;;;;;;;;6268719;22;19931;-87
2023/09/14 05:01:18;;;;;;;;;;;;;;;;;;6268749;22;20354;-87
2023/09/14 05:03:45;;;;;;;;;;;;;;;;;;6271437;22;19919;-87
2023/09/14 05:06:12;;;;;;;;;;;;;;;;;;6246662;22;20357;-87
2023/09/14 05:08:40;;;;;;;;;;;;;;;;;;6271441;22;19922;-87
2023/09/14 05:11:10;;;;;;;;;;;;;;;;;;6273090;22;19990;-86
2023/09/14 05:13:37;;;;;;;;;;;;;;;;;;6269963;22;20625;-86
2023/09/14 05:16:05;;;;;;;;;;;;;;;;;;6269536;22;19919;-86
2023/09/14 05:18:32;;;;;;;;;;;;;;;;;;6268261;22;19930;-88
2023/09/14 05:21:02;;;;;;;;;;;;;;;;;;6269751;22;19930;-88
2023/09/14 05:23:29;;;;;;;;;;;;;;;;;;6243455;22;19919;-87
2023/09/14 05:25:57;;;;;;;;;;;;;;;;;;6267736;22;19999;-87
2023/09/14 05:28:24;;;;;;;;;;;;;;;;;;6243921;22;19967;-86
2023/09/14 05:30:51;;;;;;;;;;;;;;;;;;6244146;22;19923;-86
2023/09/14 05:33:18;;;;;;;;;;;;;;;;;;6245857;22;20327;-86
2023/09/14 05:35:48;;;;;;;;;;;;;;;;;;6267193;22;19918;-87
2023/09/14 05:38:18;;;;;;;;;;;;;;;;;;6271616;22;19923;-86
2023/09/14 05:40:56;;;;;;;;;;;;;;;;;;;;;
2023/09/14 05:43:26;;;;;;;;;;;;;;;;;;6272261;22;19981;-86
2023/09/14 05:45:53;;;;;;;;;;;;;;;;;;6271126;22;20403;-86
2023/09/14 05:48:21;;;;;;;;;;;;;;;;;;6271511;22;20569;-86
2023/09/14 05:50:51;;;;;;;;;;;;;;;;;;6243232;22;19926;-87
2023/09/14 05:53:23;;;;;;;;;;;;;;;;;;6244241;22;19976;-86
2023/09/14 05:55:53;;;;;;;;;;;;;;;;;;6243317;22;19925;-87
2023/09/14 05:58:20;;;;;;;;;;;;;;;;;;6244177;22;20221;-87
2023/09/14 06:00:47;;;;;;;;;;;;;;;;;;6211815;22;19924;-87
2023/09/14 06:03:15;;;;;;;;;;;;;;;;;;6214210;22;19951;-88
2023/09/14 06:05:42;;;;;;;;;;;;;;;;;;6215048;22;19927;-88
2023/09/14 06:08:10;;;;;;;;;;;;;;;;;;6217588;22;19919;-88
2023/09/14 06:10:43;;;;;;;;;;;;;;;;;;6217293;22;19919;-88
2023/09/14 06:13:10;;;;;;;;;;;;;;;;;;6215923;22;19991;-88
2023/09/14 06:15:40;;;;;;;;;;;;;;;;;;6217180;22;19921;-88
2023/09/14 06:18:07;;;;;;;;;;;;;;;;;;6214783;22;19963;-87
2023/09/14 06:20:35;;;;;;;;;;;;;;;;;;6240437;22;19965;-87
2023/09/14 06:23:02;;;;;;;;;;;;;;;;;;6240790;22;19926;-86
2023/09/14 06:25:29;;;;;;;;;;;;;;;;;;6244491;22;19919;-87
2023/09/14 06:27:57;;;;;;;;;;;;;;;;;;6214558;22;19925;-86
2023/09/14 06:30:33;;;;;;;;;;;;;;;;;;6215713;22;20252;-86
2023/09/14 06:33:00;;;;;;;;;;;;;;;;;;6216476;22;19919;-87
2023/09/14 06:35:32;;;;;;;;;;;;;;;;;;6240756;22;20354;-86
2023/09/14 06:37:59;;;;;;;;;;;;;;;;;;6213798;22;19919;-86
2023/09/14 06:40:29;;;;;;;;;;;;;;;;;;6239895;22;19929;-86
2023/09/14 06:42:56;;;;;;;;;;;;;;;;;;6240446;22;19920;-86
2023/09/14 06:45:34;;;;;;;;;;;;;;;;;;6267727;22;19948;-86
2023/09/14 06:48:04;;;;;;;;;;;;;;;;;;6216572;22;19926;-86
2023/09/14 07:22:23;;;;;;;;;;;;;;;;;;6126277;23;19920;-86
2023/09/14 07:24:50;;;;;;;;;;;;;;;;;;6150904;23;19920;-87
2023/09/14 07:27:18;;;;;;;;;;;;;;;;;;6148678;23;19975;-87
2023/09/14 07:29:45;;;;;;;;;;;;;;;;;;6148304;23;19927;-86
2023/09/14 07:32:12;;;;;;;;;;;;;;;;;;6149298;23;19923;-87
2023/09/14 07:34:39;;;;;;;;;;;;;;;;;;6149769;23;20016;-86
2023/09/14 07:37:06;;;;;;;;;;;;;;;;;;6173614;23;19920;-86
2023/09/14 07:39:33;;;;;;;;;;;;;;;;;;6124821;23;20015;-87
2023/09/14 07:42:00;;;;;;;;;;;;;;;;;;6149367;23;19926;-87
2023/09/14 07:44:26;;;;;;;;;;;;;;;;;;6176994;23;19927;-86
2023/09/14 07:46:53;;;;;;;;;;;;;;;;;;6204096;23;20379;-86
2023/09/14 07:49:21;;;;;;;;;;;;;;;;;;6185053;22;19966;-87
2023/09/14 07:51:48;;;;;;;;;;;;;;;;;;6216252;22;19973;-87
2023/09/14 07:54:16;;;;;;;;;;;;;;;;;;6217413;22;19990;-87
2023/09/14 07:56:43;;;;;;;;;;;;;;;;;;6215593;22;19926;-87
2023/09/14 07:59:11;;;;;;;;;;;;;;;;;;6214656;22;19938;-86
2023/09/14 08:01:38;;;;;;;;;;;;;;;;;;6241315;22;19923;-86
2023/09/14 08:04:05;;;;;;;;;;;;;;;;;;6241897;22;20259;-87
2023/09/14 08:06:33;;;;;;;;;;;;;;;;;;6226560;22;19923;-86
2023/09/14 08:09:01;;;;;;;;;;;;;;;;;;6242603;22;20598;-87
2023/09/14 08:11:29;;;;;;;;;;;;;;;;;;6271837;22;19923;-87
2023/09/14 08:13:56;;;;;;;;;;;;;;;;;;6268946;22;19922;-87
2023/09/14 08:16:23;;;;;;;;;;;;;;;;;;6268996;22;20007;-85
2023/09/14 08:18:52;;;;;;;;;;;;;;;;;;6267936;22;20421;-87
2023/09/14 08:21:19;;;;;;;;;;;;;;;;;;6268104;22;19919;-87
2023/09/14 08:23:46;;;;;;;;;;;;;;;;;;6240490;22;19919;-87
2023/09/14 08:26:13;;;;;;;;;;;;;;;;;;6244801;22;19982;-87
2023/09/14 08:28:41;;;;;;;;;;;;;;;;;;6267414;22;20256;-86
2023/09/14 08:31:08;;;;;;;;;;;;;;;;;;6269231;22;19958;-87
2023/09/14 08:33:35;;;;;;;;;;;;;;;;;;6268121;22;19915;-87
2023/09/14 08:36:02;;;;;;;;;;;;;;;;;;6241057;22;20055;-86
2023/09/14 08:38:29;;;;;;;;;;;;;;;;;;6242523;22;19923;-87
2023/09/14 08:40:56;;;;;;;;;;;;;;;;;;6266916;22;20445;-87
2023/09/14 08:43:24;;;;;;;;;;;;;;;;;;6266954;22;20009;-86
2023/09/14 08:45:51;;;;;;;;;;;;;;;;;;6241348;22;19926;-87
2023/09/14 08:48:18;;;;;;;;;;;;;;;;;;6266791;22;19931;-87
2023/09/14 08:50:45;;;;;;;;;;;;;;;;;;6269944;22;19916;-86
2023/09/14 08:53:12;;;;;;;;;;;;;;;;;;6244396;22;19916;-86
2023/09/14 08:55:39;;;;;;;;;;;;;;;;;;6243593;22;19926;-86
2023/09/14 08:58:07;;;;;;;;;;;;;;;;;;6268808;22;19923;-86
2023/09/14 09:00:35;;;;;;;;;;;;;;;;;;6244683;22;19946;-87
2023/09/14 09:03:02;;;;;;;;;;;;;;;;;;6267762;22;19927;-86
2023/09/14 09:05:28;;;;;;;;;;;;;;;;;;6245293;22;20076;-87
2023/09/14 09:07:59;;;;;;;;;;;;;;;;;;6246195;22;19966;-86
2023/09/14 09:10:27;;;;;;;;;;;;;;;;;;6246806;22;19922;-86
2023/09/14 09:12:54;;;;;;;;;;;;;;;;;;6270644;22;19940;-87
2023/09/14 09:15:22;;;;;;;;;;;;;;;;;;6247273;22;19919;-86
2023/09/14 09:17:50;;;;;;;;;;;;;;;;;;6271671;22;19918;-86
2023/09/14 09:20:22;;;;;;;;;;;;;;;;;;6270408;22;20402;-86
2023/09/14 09:22:48;;;;;;;;;;;;;;;;;;6245214;22;19924;-86
2023/09/14 09:25:15;;;;;;;;;;;;;;;;;;6246830;22;19964;-86
2023/09/14 09:27:42;;;;;;;;;;;;;;;;;;6245479;22;20224;-87
2023/09/14 09:30:09;;;;;;;;;;;;;;;;;;6270543;22;19950;-86
2023/09/14 09:32:38;;;;;;;;;;;;;;;;;;6245449;22;20346;-86
2023/09/14 09:35:05;;;;;;;;;;;;;;;;;;6271233;22;19919;-87
2023/09/14 09:37:32;;;;;;;;;;;;;;;;;;6246559;22;19915;-86
2023/09/14 09:39:59;;;;;;;;;;;;;;;;;;6248155;22;19926;-86
2023/09/14 09:42:26;;;;;;;;;;;;;;;;;;6246749;22;20311;-86
2023/09/14 09:44:53;;;;;;;;;;;;;;;;;;6245946;22;19915;-86
2023/09/14 09:47:21;;;;;;;;;;;;;;;;;;6244295;22;19919;-86
2023/09/14 09:49:48;;;;;;;;;;;;;;;;;;6245406;22;19926;-86
2023/09/14 09:52:15;;;;;;;;;;;;;;;;;;6270156;22;19915;-86
2023/09/14 09:54:42;;;;;;;;;;;;;;;;;;6247054;22;19918;-86
2023/09/14 09:57:09;;;;;;;;;;;;;;;;;;6246723;22;19993;-86
2023/09/14 09:59:36;;;;;;;;;;;;;;;;;;6246945;22;19922;-86
2023/09/14 10:02:02;;;;;;;;;;;;;;;;;;6246588;22;19923;-86
2023/09/14 10:04:30;;;;;;;;;;;;;;;;;;6272751;22;20381;-86
2023/09/14 10:06:59;;;;;;;;;;;;;;;;;;6163583;22;1800967;-87
2023/09/14 10:09:26;;;;;;;;;;;;;;;;;;6242024;22;20398;-86
2023/09/14 10:11:53;;;;;;;;;;;;;;;;;;6242227;22;19938;-86
2023/09/14 10:14:20;;;;;;;;;;;;;;;;;;6270860;22;19915;-86
2023/09/14 10:16:47;;;;;;;;;;;;;;;;;;6240817;22;19919;-86
2023/09/14 10:19:15;;;;;;;;;;;;;;;;;;6271607;22;19923;-86
2023/09/14 10:21:42;;;;;;;;;;;;;;;;;;6270919;22;19923;-86
2023/09/14 10:24:10;;;;;;;;;;;;;;;;;;6244846;22;19965;-86
2023/09/14 10:26:37;;;;;;;;;;;;;;;;;;6268821;22;19923;-86
2023/09/14 10:29:04;;;;;;;;;;;;;;;;;;6242146;22;19919;-86
2023/09/14 10:31:31;;;;;;;;;;;;;;;;;;6267290;22;19972;-86
2023/09/14 10:33:59;;;;;;;;;;;;;;;;;;6241714;22;19931;-86
2023/09/14 10:36:27;;;;;;;;;;;;;;;;;;6268597;22;20214;-87
2023/09/14 10:38:54;;;;;;;;;;;;;;;;;;6266772;22;19919;-86
2023/09/14 10:41:22;;;;;;;;;;;;;;;;;;6243391;22;19915;-86
2023/09/14 10:43:48;;;;;;;;;;;;;;;;;;6243316;22;19923;-86
2023/09/14 10:46:16;;;;;;;;;;;;;;;;;;6243440;22;19922;-86
2023/09/14 10:48:43;;;;;;;;;;;;;;;;;;6243212;22;19935;-86
2023/09/14 10:51:11;;;;;;;;;;;;;;;;;;6243619;22;20498;-86
2023/09/14 10:53:38;;;;;;;;;;;;;;;;;;6268805;22;20309;-86
2023/09/14 10:56:06;;;;;;;;;;;;;;;;;;6268376;22;19950;-86
2023/09/14 10:58:33;;;;;;;;;;;;;;;;;;6242723;22;19945;-86
2023/09/14 11:01:00;;;;;;;;;;;;;;;;;;6244921;22;19919;-86
2023/09/14 11:03:28;;;;;;;;;;;;;;;;;;6243290;22;19915;-86
2023/09/14 11:05:55;;;;;;;;;;;;;;;;;;6242743;22;20649;-86
2023/09/14 11:08:22;;;;;;;;;;;;;;;;;;6243649;22;19919;-86
2023/09/14 11:17:04;;;;;;;;;;;;;;;;;;6254041;22;19982;-88
2023/09/14 11:27:28;;;;;;;;;;;;;;;;;;6317519;22;19933;-83
2023/09/14 11:29:54;;;;;;;;;;;;;;;;;;6294643;22;19993;-83
2023/09/14 11:32:22;;;;;;;;;;;;;;;;;;6320269;22;19946;-83
2023/09/14 11:34:49;;;;;;;;;;;;;;;;;;6272304;22;19925;-83
2023/09/14 11:37:16;;;;;;;;;;;;;;;;;;6274677;22;20015;-83
2023/09/14 11:39:43;;;;;;;;;;;;;;;;;;6273753;22;20001;-84
2023/09/14 11:42:14;;;;;;;;;;;;;;;;;;6296099;22;19925;-83
2023/09/14 11:44:41;;;;;;;;;;;;;;;;;;6270091;22;19914;-83
2023/09/14 11:47:23;;;;;;;;;;;;;;;;;;6327347;22;20337;-83
2023/09/14 11:49:51;;;;;;;;;;;;;;;;;;6296918;22;19926;-83
2023/09/14 11:52:27;;;;;;;;;;;;;;;;;;6298507;22;20014;-83
2023/09/14 11:55:00;;;;;;;;;;;;;;;;;;6301890;22;19926;-83
2023/09/14 12:00:35;;;;;;;;;;;;;;;;;;6324207;22;19929;-83
2023/09/14 12:03:02;;;;;;;;;;;;;;;;;;6272203;22;19919;-83
2023/09/14 12:05:36;;;;;;;;;;;;;;;;;;6296116;22;19967;-83
2023/09/14 12:08:03;;;;;;;;;;;;;;;;;;6271332;22;20477;-83
2023/09/14 12:10:31;;;;;;;;;;;;;;;;;;6267710;22;19922;-83
2023/09/14 12:12:58;;;;;;;;;;;;;;;;;;6294529;22;20156;-83
2023/09/14 12:15:26;;;;;;;;;;;;;;;;;;6294863;22;20238;-83
2023/09/14 12:17:52;;;;;;;;;;;;;;;;;;6260069;22;19948;-83
2023/09/14 12:20:20;;;;;;;;;;;;;;;;;;6268277;22;20297;-83
2023/09/14 12:22:51;;;;;;;;;;;;;;;;;;6205016;22;19968;-83
2023/09/14 12:25:18;;;;;;;;;;;;;;;;;;6204376;22;19919;-83
2023/09/14 12:27:48;;;;;;;;;;;;;;;;;;6208550;22;20360;-83
2023/09/14 12:30:18;;;;;;;;;;;;;;;;;;6288149;22;19959;-83
2023/09/14 12:32:58;;;;;;;;;;;;;;;;;;6286804;22;20302;-83
2023/09/14 12:35:25;;;;;;;;;;;;;;;;;;6233452;22;20445;-82
2023/09/14 12:37:52;;;;;;;;;;;;;;;;;;6234039;22;19977;-83
2023/09/14 12:40:22;;;;;;;;;;;;;;;;;;6285013;22;20055;-83
2023/09/14 12:43:02;;;;;;;;;;;;;;;;;;6233798;22;19922;-83
2023/09/14 12:45:39;;;;;;;;;;;;;;;;;;6260996;22;19953;-83
2023/09/14 12:48:15;;;;;;;;;;;;;;;;;;6289808;22;20234;-85
2023/09/14 12:50:59;;;;;;;;;;;;;;;;;;6295625;22;20018;-83
2023/09/14 12:53:37;;;;;;;;;;;;;;;;;;6259608;22;19919;-83
2023/09/14 12:59:12;;;;;;;;;;;;;;;;;;6292511;22;19927;-84
2023/09/14 13:01:43;;;;;;;;;;;;;;;;;;6261128;22;19941;-84
2023/09/14 13:04:13;;;;;;;;;;;;;;;;;;6245298;22;19915;-84
2023/09/14 13:06:52;;;;;;;;;;;;;;;;;;6265824;22;19919;-84
2023/09/14 13:09:33;;;;;;;;;;;;;;;;;;;;;
2023/09/14 13:12:02;;;;;;;;;;;;;;;;;;6268171;22;19919;-84
2023/09/14 13:14:41;;;;;;;;;;;;;;;;;;6290422;22;19919;-83
2023/09/14 13:17:19;;;;;;;;;;;;;;;;;;;;;
2023/09/14 13:19:53;;;;;;;;;;;;;;;;;;6285805;22;20253;-84
2023/09/14 13:22:23;;;;;;;;;;;;;;;;;;6263423;22;19929;-84
2023/09/14 13:24:56;;;;;;;;;;;;;;;;;;6268001;22;19923;-84
2023/09/14 13:27:31;;;;;;;;;;;;;;;;;;6241948;22;20262;-84
2023/09/14 13:30:02;;;;;;;;;;;;;;;;;;6270561;22;19926;-84
2023/09/14 13:32:29;;;;;;;;;;;;;;;;;;6237530;22;19926;-84
2023/09/14 13:34:59;;;;;;;;;;;;;;;;;;6267769;22;19964;-84
2023/09/14 13:37:49;;;;;;;;;;;;;;;;;;6242550;22;19921;-84
2023/09/14 13:40:19;;;;;;;;;;;;;;;;;;6269777;22;20611;-83
2023/09/14 13:42:49;;;;;;;;;;;;;;;;;;6240675;22;19918;-84
2023/09/14 13:45:23;;;;;;;;;;;;;;;;;;6269494;22;20361;-84
2023/09/14 13:47:51;;;;;;;;;;;;;;;;;;6270370;22;19915;-84
2023/09/14 13:50:22;;;;;;;;;;;;;;;;;;6265673;22;19925;-84
2023/09/14 13:55:57;;;;;;;;;;;;;;;;;;6209067;23;19920;-84
2023/09/14 13:58:30;;;;;;;;;;;;;;;;;;6144427;23;19955;-84
2023/09/14 14:00:57;;;;;;;;;;;;;;;;;;6168237;23;19920;-83
2023/09/14 14:03:23;;;;;;;;;;;;;;;;;;6165064;23;19927;-83
2023/09/14 14:05:50;;;;;;;;;;;;;;;;;;6170023;23;20375;-84
2023/09/14 14:08:17;;;;;;;;;;;;;;;;;;6192803;23;19959;-84
2023/09/14 14:16:28;;;;;;;;;;;;;;;;;;6171752;23;20502;-84
2023/09/14 14:18:55;;;;;;;;;;;;;;;;;;6195283;23;19923;-84
2023/09/14 14:21:24;;;;;;;;;;;;;;;;;;6274742;22;19930;-84
2023/09/14 14:23:51;;;;;;;;;;;;;;;;;;6292529;22;20321;-83
2023/09/14 14:26:17;;;;;;;;;;;;;;;;;;6261526;22;19984;-84
2023/09/14 14:28:45;;;;;;;;;;;;;;;;;;6266834;22;19919;-83
2023/09/14 14:31:14;;;;;;;;;;;;;;;;;;6263284;22;19918;-84
2023/09/14 14:33:54;;;;;;;;;;;;;;;;;;6289222;22;20284;-84
2023/09/14 14:36:22;;;;;;;;;;;;;;;;;;6261225;22;19919;-84
2023/09/14 14:38:58;;;;;;;;;;;;;;;;;;6287700;22;19966;-84
2023/09/14 14:41:43;;;;;;;;;;;;;;;;;;;;;
2023/09/14 14:44:18;;;;;;;;;;;;;;;;;;6287214;22;20230;-84
2023/09/14 14:46:47;;;;;;;;;;;;;;;;;;6294168;22;19915;-83
2023/09/14 14:49:13;;;;;;;;;;;;;;;;;;6288877;22;19919;-83
2023/09/14 14:51:45;;;;;;;;;;;;;;;;;;6260823;22;19919;-84
2023/09/14 14:54:21;;;;;;;;;;;;;;;;;;6264443;22;19964;-83
2023/09/14 14:56:47;;;;;;;;;;;;;;;;;;6289897;22;20373;-83
2023/09/14 14:59:14;;;;;;;;;;;;;;;;;;6263266;22;19931;-83
2023/09/14 15:01:40;;;;;;;;;;;;;;;;;;6263986;22;19940;-83
2023/09/14 15:04:17;;;;;;;;;;;;;;;;;;6268977;22;20017;-83
2023/09/14 15:06:48;;;;;;;;;;;;;;;;;;6262040;22;19979;-83
2023/09/14 15:09:14;;;;;;;;;;;;;;;;;;6287362;22;20345;-84
2023/09/14 15:11:43;;;;;;;;;;;;;;;;;;6263040;22;19919;-84
2023/09/14 15:14:09;;;;;;;;;;;;;;;;;;6265197;22;20041;-84
2023/09/14 15:16:35;;;;;;;;;;;;;;;;;;6266150;22;19919;-83
2023/09/14 15:19:04;;;;;;;;;;;;;;;;;;6288699;22;20024;-83
2023/09/14 15:21:31;;;;;;;;;;;;;;;;;;6232365;22;19954;-83
2023/09/14 15:24:06;;;;;;;;;;;;;;;;;;6259020;22;19919;-82
2023/09/14 15:26:32;;;;;;;;;;;;;;;;;;6258813;22;20255;-83
2023/09/14 15:28:59;;;;;;;;;;;;;;;;;;6234302;22;19919;-85
2023/09/14 15:31:27;;;;;;;;;;;;;;;;;;6258451;22;19994;-84
2023/09/14 15:33:53;;;;;;;;;;;;;;;;;;6234123;22;19919;-83
2023/09/14 15:36:21;;;;;;;;;;;;;;;;;;6234612;22;20275;-84
2023/09/14 15:38:48;;;;;;;;;;;;;;;;;;6235678;22;19931;-83
2023/09/14 15:41:17;;;;;;;;;;;;;;;;;;6238306;22;19997;-83
2023/09/14 15:46:34;;;;;;;;;;;;;;;;;;6260254;22;19919;-83
2023/09/14 15:49:00;;;;;;;;;;;;;;;;;;6259890;22;19929;-84
2023/09/14 15:51:29;;;;;;;;;;;;;;;;;;6232740;22;19994;-84
2023/09/14 15:53:56;;;;;;;;;;;;;;;;;;6234068;22;20593;-83
2023/09/14 15:56:23;;;;;;;;;;;;;;;;;;6233374;22;19927;-84
2023/09/14 15:58:49;;;;;;;;;;;;;;;;;;6232811;22;19928;-84
2023/09/14 16:01:15;;;;;;;;;;;;;;;;;;6260983;22;20258;-83
2023/09/14 16:03:52;;;;;;;;;;;;;;;;;;6262697;22;19919;-84
2023/09/14 16:06:19;;;;;;;;;;;;;;;;;;6232373;22;20308;-84
2023/09/14 16:08:46;;;;;;;;;;;;;;;;;;6232053;22;19919;-84
2023/09/14 16:11:13;;;;;;;;;;;;;;;;;;6262479;22;19919;-83
2023/09/14 16:13:39;;;;;;;;;;;;;;;;;;6234860;22;19922;-84
2023/09/14 16:16:05;;;;;;;;;;;;;;;;;;6262240;22;19995;-83
2023/09/14 16:18:31;;;;;;;;;;;;;;;;;;6232336;22;19989;-83
2023/09/14 16:20:57;;;;;;;;;;;;;;;;;;6260668;22;19930;-83
2023/09/14 16:23:29;;;;;;;;;;;;;;;;;;6258803;22;19919;-83
2023/09/14 16:26:00;;;;;;;;;;;;;;;;;;6234761;22;19919;-84
2023/09/14 16:28:26;;;;;;;;;;;;;;;;;;6258284;22;19919;-83
2023/09/14 16:30:52;;;;;;;;;;;;;;;;;;6261447;22;19968;-83
2023/09/14 16:33:19;;;;;;;;;;;;;;;;;;6258581;22;19950;-84
2023/09/14 16:35:47;;;;;;;;;;;;;;;;;;6260078;22;19968;-83
2023/09/14 16:38:13;;;;;;;;;;;;;;;;;;6263347;22;19926;-83
2023/09/14 16:40:39;;;;;;;;;;;;;;;;;;6260420;22;19919;-83
2023/09/14 16:43:05;;;;;;;;;;;;;;;;;;6259819;22;20014;-83
2023/09/14 16:45:31;;;;;;;;;;;;;;;;;;6258977;22;19947;-83
2023/09/14 16:50:51;;;;;;;;;;;;;;;;;;6259781;22;20008;-83
2023/09/14 16:53:20;;;;;;;;;;;;;;;;;;6233579;22;20303;-83
2023/09/14 16:55:46;;;;;;;;;;;;;;;;;;6259201;22;20014;-83
2023/09/14 16:58:13;;;;;;;;;;;;;;;;;;6260515;22;20002;-84
2023/09/14 17:00:39;;;;;;;;;;;;;;;;;;6257608;22;19923;-83
2023/09/14 17:03:05;;;;;;;;;;;;;;;;;;6234174;22;19949;-83
2023/09/14 17:05:31;;;;;;;;;;;;;;;;;;6231632;22;19994;-83
2023/09/14 17:07:57;;;;;;;;;;;;;;;;;;6258861;22;20448;-83
2023/09/14 17:10:25;;;;;;;;;;;;;;;;;;6231140;22;20347;-83
2023/09/14 17:12:52;;;;;;;;;;;;;;;;;;6233487;22;20418;-85
2023/09/14 17:15:19;;;;;;;;;;;;;;;;;;6233533;22;20392;-85
2023/09/14 17:17:45;;;;;;;;;;;;;;;;;;6258611;22;19962;-84
2023/09/14 17:20:12;;;;;;;;;;;;;;;;;;6260196;22;20426;-84
2023/09/14 17:22:38;;;;;;;;;;;;;;;;;;6204426;22;20086;-85
2023/09/14 17:25:06;;;;;;;;;;;;;;;;;;6205934;22;20655;-85
2023/09/14 17:27:33;;;;;;;;;;;;;;;;;;6204178;22;20298;-84
2023/09/14 17:30:00;;;;;;;;;;;;;;;;;;6229840;22;19923;-84
2023/09/14 17:32:26;;;;;;;;;;;;;;;;;;6203498;22;19969;-84
2023/09/14 17:34:54;;;;;;;;;;;;;;;;;;6205857;22;19923;-85
2023/09/14 17:37:20;;;;;;;;;;;;;;;;;;6207672;22;19919;-85
2023/09/14 17:39:46;;;;;;;;;;;;;;;;;;6207682;22;20319;-84
2023/09/14 17:42:13;;;;;;;;;;;;;;;;;;6230837;22;20335;-84
2023/09/14 17:44:40;;;;;;;;;;;;;;;;;;6232499;22;19931;-84
2023/09/14 17:47:08;;;;;;;;;;;;;;;;;;6262559;22;19919;-84
2023/09/14 17:49:34;;;;;;;;;;;;;;;;;;6259968;22;20331;-84
2023/09/14 17:52:00;;;;;;;;;;;;;;;;;;6208313;22;19931;-85
2023/09/14 17:54:26;;;;;;;;;;;;;;;;;;6230113;22;19926;-84
2023/09/14 17:56:55;;;;;;;;;;;;;;;;;;6232734;22;20674;-84
2023/09/14 17:59:27;;;;;;;;;;;;;;;;;;6229021;22;19923;-84
2023/09/14 18:01:54;;;;;;;;;;;;;;;;;;6207994;22;19919;-84
2023/09/14 18:04:21;;;;;;;;;;;;;;;;;;6229507;22;19990;-84